createdAt,value
2023-04-03T00:01:34.159Z,9.48
2023-04-03T00:04:03.520Z,10.50
2023-04-03T00:06:32.632Z,9.90
2023-04-03T00:09:02.102Z,9.27
2023-04-03T00:14:11.125Z,9.35
2023-04-03T00:16:40.485Z,10.05
2023-04-03T00:19:12.342Z,9.88
2023-04-03T00:21:41.944Z,9.80
2023-04-03T00:24:11.566Z,10.43
2023-04-03T00:26:42.461Z,10.18
2023-04-03T00:29:13.768Z,10.57
2023-04-03T00:31:43.481Z,10.50
2023-04-03T00:34:12.690Z,10.55
2023-04-03T00:36:42.208Z,9.93
2023-04-03T00:39:11.815Z,10.30
2023-04-03T00:41:41.072Z,10.32
2023-04-03T00:45:01.455Z,11.00
2023-04-03T00:50:09.943Z,9.23
2023-04-03T00:52:40.817Z,9.73
2023-04-03T00:55:12.637Z,9.60
2023-04-03T00:57:41.901Z,9.70
2023-04-03T01:00:17.776Z,9.27
2023-04-03T01:02:47.705Z,9.60
2023-04-03T01:05:20.113Z,9.33
2023-04-03T01:07:50.531Z,9.10
2023-04-03T01:10:22.232Z,9.77
2023-04-03T01:12:53.254Z,9.77
2023-04-03T01:15:27.207Z,9.67
2023-04-03T01:18:10.338Z,9.25
2023-04-03T01:21:22.508Z,9.73
2023-04-03T01:24:05.331Z,9.00
2023-04-03T01:26:36.385Z,9.30
2023-04-03T01:29:05.941Z,9.67
2023-04-03T01:31:56.816Z,9.68
2023-04-03T01:34:34.424Z,9.35
2023-04-03T01:37:04.269Z,9.65
2023-04-03T01:39:33.550Z,9.65
2023-04-03T01:42:04.325Z,9.50
2023-04-03T01:44:38.309Z,9.80
2023-04-03T01:47:09.013Z,9.55
2023-04-03T01:52:16.416Z,9.50
2023-04-03T01:54:45.490Z,10.13
2023-04-03T01:57:16.158Z,9.70
2023-04-03T02:02:26.896Z,9.43
2023-04-03T02:04:57.988Z,9.02
2023-04-03T02:07:27.324Z,9.15
2023-04-03T02:09:56.641Z,9.27
2023-04-03T02:12:36.902Z,9.15
2023-04-03T02:15:07.450Z,8.80
2023-04-03T02:17:40.342Z,9.27
2023-04-03T02:20:12.532Z,10.05
2023-04-03T02:22:41.842Z,9.48
2023-04-03T02:25:12.473Z,9.68
2023-04-03T02:27:41.970Z,9.70
2023-04-03T02:30:13.481Z,9.60
2023-04-03T02:32:43.112Z,10.13
2023-04-03T02:35:15.245Z,9.95
2023-04-03T02:37:44.663Z,9.73
2023-04-03T02:40:14.339Z,10.18
2023-04-03T02:42:44.207Z,9.63
2023-04-03T02:45:13.670Z,11.60
2023-04-03T02:47:43.452Z,11.75
2023-04-03T02:50:15.385Z,11.90
2023-04-03T02:52:50.018Z,10.43
2023-04-03T02:55:19.537Z,9.77
2023-04-03T02:57:51.523Z,10.07
2023-04-03T03:00:22.337Z,9.93
2023-04-03T03:02:52.513Z,10.55
2023-04-03T03:05:24.049Z,11.38
2023-04-03T03:08:04.900Z,10.23
2023-04-03T03:10:35.040Z,11.05
2023-04-03T03:13:04.397Z,11.40
2023-04-03T03:15:33.704Z,12.05
2023-04-03T03:18:13.333Z,13.90
2023-04-03T03:20:44.421Z,15.27
2023-04-03T03:23:14.200Z,14.40
2023-04-03T03:25:43.770Z,12.95
2023-04-03T03:28:18.432Z,12.88
2023-04-03T03:30:47.669Z,13.98
2023-04-03T03:33:17.832Z,12.65
2023-04-03T03:35:49.422Z,12.30
2023-04-03T03:38:18.785Z,14.18
2023-04-03T03:40:49.661Z,12.52
2023-04-03T03:43:21.177Z,11.95
2023-04-03T03:45:54.395Z,13.45
2023-04-03T03:48:25.847Z,11.73
2023-04-03T03:50:57.156Z,12.50
2023-04-03T03:53:31.019Z,11.80
2023-04-03T03:56:07.826Z,11.82
2023-04-03T03:58:39.909Z,11.63
2023-04-03T04:01:17.511Z,11.80
2023-04-03T04:03:50.515Z,11.85
2023-04-03T04:06:30.820Z,10.60
2023-04-03T04:09:03.930Z,10.73
2023-04-03T04:14:11.016Z,10.05
2023-04-03T04:16:49.125Z,10.95
2023-04-03T04:19:23.925Z,9.80
2023-04-03T04:21:55.548Z,9.68
2023-04-03T04:24:25.464Z,10.00
2023-04-03T04:26:56.925Z,10.73
2023-04-03T04:29:27.562Z,10.32
2023-04-03T04:32:03.161Z,10.80
2023-04-03T04:34:33.185Z,10.57
2023-04-03T04:37:05.964Z,10.70
2023-04-03T04:39:36.578Z,10.25
2023-04-03T04:42:08.124Z,9.98
2023-04-03T04:47:07.496Z,10.10
2023-04-03T04:49:47.330Z,10.88
2023-04-03T04:52:19.844Z,10.20
2023-04-03T04:54:49.397Z,9.10
2023-04-03T04:57:24.484Z,10.13
2023-04-03T04:59:53.810Z,10.65
2023-04-03T05:02:23.192Z,10.25
2023-04-03T05:04:53.348Z,10.50
2023-04-03T05:07:28.908Z,10.75
2023-04-03T05:10:00.116Z,10.90
2023-04-03T05:12:32.311Z,10.35
2023-04-03T05:15:04.068Z,10.50
2023-04-03T05:17:39.970Z,10.88
2023-04-03T05:20:14.456Z,10.60
2023-04-03T05:22:47.352Z,11.30
2023-04-03T05:25:17.045Z,9.90
2023-04-03T05:27:47.348Z,10.70
2023-04-03T05:30:17.368Z,10.80
2023-04-03T05:32:48.164Z,12.07
2023-04-03T05:35:42.052Z,12.25
2023-04-03T05:38:17.301Z,11.77
2023-04-03T05:40:47.253Z,9.77
2023-04-03T05:43:16.721Z,10.65
2023-04-03T05:45:47.183Z,9.50
2023-04-03T05:48:17.822Z,9.63
2023-04-03T05:50:47.494Z,8.77
2023-04-03T05:53:28.446Z,9.07
2023-04-03T05:56:01.226Z,9.05
2023-04-03T05:58:33.866Z,8.77
2023-04-03T06:01:04.480Z,9.02
2023-04-03T06:03:33.970Z,8.85
2023-04-03T06:06:16.121Z,9.05
2023-04-03T06:08:47.481Z,8.95
2023-04-03T06:11:17.151Z,9.00
2023-04-03T06:13:46.913Z,9.00
2023-04-03T06:16:17.934Z,9.45
2023-04-03T06:18:47.143Z,8.83
2023-04-03T06:21:16.535Z,9.80
2023-04-03T06:23:52.898Z,9.60
2023-04-03T06:26:22.996Z,9.02
2023-04-03T06:28:52.535Z,8.65
2023-04-03T06:31:22.165Z,8.40
2023-04-03T06:33:51.709Z,8.30
2023-04-03T06:36:30.859Z,8.77
2023-04-03T06:39:02.154Z,8.68
2023-04-03T06:41:37.400Z,8.48
2023-04-03T06:44:07.074Z,8.60
2023-04-03T06:46:36.413Z,10.57
2023-04-03T06:49:08.167Z,9.05
2023-04-03T06:54:13.638Z,9.00
2023-04-03T06:56:43.053Z,9.15
2023-04-03T06:59:13.617Z,9.38
2023-04-03T07:01:49.661Z,9.75
2023-04-03T07:04:24.413Z,9.82
2023-04-03T07:06:55.875Z,8.70
2023-04-03T07:09:27.118Z,9.80
2023-04-03T07:12:01.405Z,9.80
2023-04-03T07:14:31.059Z,9.57
2023-04-03T07:17:00.301Z,9.05
2023-04-03T07:19:35.539Z,10.35
2023-04-03T07:22:04.812Z,10.13
2023-04-03T07:24:36.747Z,11.18
2023-04-03T07:27:09.182Z,10.60
2023-04-03T07:29:38.566Z,10.52
2023-04-03T07:32:08.487Z,11.85
2023-04-03T07:34:38.146Z,11.80
2023-04-03T07:39:49.279Z,13.65
2023-04-03T07:42:18.643Z,13.13
2023-04-03T07:44:48.117Z,12.25
2023-04-03T07:47:18.904Z,13.85
2023-04-03T07:49:50.008Z,13.20
2023-04-03T07:52:19.332Z,12.68
2023-04-03T07:54:50.596Z,13.60
2023-04-03T07:57:23.619Z,12.85
2023-04-03T07:59:53.017Z,12.38
2023-04-03T08:02:22.961Z,13.77
2023-04-03T08:04:53.088Z,13.13
2023-04-03T08:07:22.557Z,11.88
2023-04-03T08:12:34.275Z,11.90
2023-04-03T08:15:03.942Z,11.63
2023-04-03T08:20:10.964Z,12.75
2023-04-03T08:22:40.225Z,12.50
2023-04-03T08:25:12.543Z,12.80
2023-04-03T08:27:46.841Z,12.90
2023-04-03T08:30:16.854Z,13.10
2023-04-03T08:32:53.305Z,11.10
2023-04-03T08:35:22.814Z,11.27
2023-04-03T08:37:51.913Z,10.88
2023-04-03T08:40:23.398Z,10.43
2023-04-03T08:43:07.194Z,10.18
2023-04-03T08:45:50.260Z,9.75
2023-04-03T08:48:24.512Z,10.27
2023-04-03T08:50:58.840Z,10.18
2023-04-03T08:53:33.239Z,10.02
2023-04-03T08:56:08.418Z,9.30
2023-04-03T08:58:45.826Z,10.52
2023-04-03T09:01:22.282Z,10.13
2023-04-03T09:03:53.050Z,9.90
2023-04-03T09:06:24.916Z,9.43
2023-04-03T09:09:04.428Z,9.85
2023-04-03T09:14:32.904Z,9.45
2023-04-03T09:17:13.333Z,9.98
2023-04-03T09:19:51.865Z,9.00
2023-04-03T09:22:30.251Z,9.55
2023-04-03T09:25:03.341Z,10.43
2023-04-03T09:27:34.679Z,9.52
2023-04-03T09:30:04.419Z,10.32
2023-04-03T09:32:35.664Z,10.05
2023-04-03T09:35:19.065Z,10.90
2023-04-03T09:38:00.913Z,10.00
2023-04-03T09:40:40.046Z,10.40
2023-04-03T09:43:27.810Z,10.18
2023-04-03T09:45:59.165Z,9.93
2023-04-03T09:48:29.447Z,9.10
2023-04-03T09:51:02.265Z,10.05
2023-04-03T09:53:40.152Z,8.82
2023-04-03T09:56:23.689Z,10.70
2023-04-03T09:59:16.464Z,8.98
2023-04-03T10:01:59.840Z,9.25
2023-04-03T10:04:43.940Z,8.65
2023-04-03T10:07:29.399Z,9.18
2023-04-03T10:12:46.885Z,9.05
2023-04-03T10:15:24.326Z,8.35
2023-04-03T10:18:17.850Z,8.15
2023-04-03T10:20:55.099Z,9.60
2023-04-03T10:23:30.126Z,8.98
2023-04-03T10:26:12.592Z,7.97
2023-04-03T10:28:55.495Z,7.97
2023-04-03T10:31:35.962Z,7.80
2023-04-03T10:36:48.842Z,8.20
2023-04-03T10:39:30.394Z,8.20
2023-04-03T10:42:17.293Z,8.90
2023-04-03T10:45:11.163Z,7.97
2023-04-03T10:47:50.312Z,7.68
2023-04-03T10:50:41.725Z,7.35
2023-04-03T10:53:21.008Z,7.20
2023-04-03T10:55:56.911Z,6.95
2023-04-03T10:58:32.565Z,5.85
2023-04-03T11:01:09.797Z,6.00
2023-04-03T11:03:50.431Z,6.15
2023-04-03T11:06:24.425Z,5.93
2023-04-03T11:09:00.078Z,5.68
2023-04-03T11:11:38.141Z,5.00
2023-04-03T11:14:16.946Z,5.20
2023-04-03T11:16:58.714Z,4.25
2023-04-03T11:22:16.371Z,4.43
2023-04-03T11:24:49.872Z,4.30
2023-04-03T11:27:25.904Z,4.55
2023-04-03T11:29:57.435Z,5.75
2023-04-03T11:32:57.731Z,5.40
2023-04-03T11:35:30.279Z,5.13
2023-04-03T11:38:07.773Z,5.32
2023-04-03T11:40:41.216Z,5.72
2023-04-03T11:43:23.500Z,5.60
2023-04-03T11:46:02.820Z,6.15
2023-04-03T11:48:54.090Z,4.72
2023-04-03T11:51:45.611Z,4.60
2023-04-03T11:54:45.992Z,4.50
2023-04-03T11:57:45.772Z,4.85
2023-04-03T12:00:45.107Z,4.72
2023-04-03T12:03:52.395Z,4.80
2023-04-03T12:06:58.239Z,4.25
2023-04-03T12:09:34.320Z,5.00
2023-04-03T12:12:34.282Z,4.70
2023-04-03T12:15:54.318Z,5.20
2023-04-03T12:18:45.352Z,6.07
2023-04-03T12:21:19.098Z,5.40
2023-04-03T12:24:07.337Z,4.85
2023-04-03T12:26:49.284Z,5.40
2023-04-03T12:32:09.008Z,5.50
2023-04-03T12:35:01.431Z,6.32
2023-04-03T12:37:46.122Z,5.53
2023-04-03T12:40:26.831Z,5.55
2023-04-03T12:43:14.269Z,7.07
2023-04-03T12:52:41.523Z,6.40
2023-04-03T12:55:22.924Z,6.55
2023-04-03T12:57:57.976Z,5.90
2023-04-03T13:00:39.579Z,5.97
2023-04-03T13:03:22.794Z,5.80
2023-04-03T13:05:52.275Z,5.72
2023-04-03T13:08:23.706Z,5.07
2023-04-03T13:10:59.059Z,6.00
2023-04-03T13:13:28.999Z,5.03
2023-04-03T13:15:58.953Z,4.85
2023-04-03T13:18:32.197Z,5.78
2023-04-03T13:21:06.245Z,4.70
2023-04-03T13:23:40.900Z,5.68
2023-04-03T13:26:10.419Z,5.22
2023-04-03T13:28:40.295Z,5.20
2023-04-03T13:31:20.348Z,5.10
2023-04-03T13:33:59.165Z,4.80
2023-04-03T13:36:34.542Z,5.60
2023-04-03T13:39:08.842Z,5.30
2023-04-03T13:41:42.044Z,5.50
2023-04-03T13:44:20.076Z,5.57
2023-04-03T13:49:43.280Z,5.72
2023-04-03T13:52:27.786Z,5.70
2023-04-03T13:55:25.872Z,6.03
2023-04-03T13:57:59.010Z,6.03
2023-04-03T14:00:39.454Z,6.00
2023-04-03T14:03:17.358Z,6.20
2023-04-03T14:05:47.118Z,6.47
2023-04-03T14:08:16.849Z,5.55
2023-04-03T14:10:48.358Z,5.15
2023-04-03T14:13:19.768Z,6.10
2023-04-03T14:15:51.651Z,5.30
2023-04-03T14:20:51.786Z,5.93
2023-04-03T14:23:21.193Z,5.97
2023-04-03T14:25:54.067Z,6.10
2023-04-03T14:28:26.238Z,6.13
2023-04-03T14:31:00.571Z,6.32
2023-04-03T14:33:35.091Z,6.25
2023-04-03T14:36:07.624Z,7.10
2023-04-03T14:38:48.142Z,7.50
2023-04-03T14:41:21.698Z,6.38
2023-04-03T14:43:51.537Z,6.80
2023-04-03T14:46:31.280Z,6.93
2023-04-03T14:49:16.917Z,6.43
2023-04-03T14:51:46.386Z,6.90
2023-04-03T14:54:19.507Z,6.85
2023-04-03T14:56:57.167Z,6.32
2023-04-03T14:59:26.497Z,6.57
2023-04-03T15:01:55.835Z,6.22
2023-04-03T15:04:26.024Z,6.68
2023-04-03T15:06:55.863Z,6.68
2023-04-03T15:09:38.758Z,5.95
2023-04-03T15:12:11.919Z,7.72
2023-04-03T15:14:51.850Z,7.32
2023-04-03T15:17:27.053Z,6.90
2023-04-03T15:20:03.412Z,7.53
2023-04-03T15:22:32.780Z,7.13
2023-04-03T15:25:02.025Z,5.85
2023-04-03T15:27:34.662Z,5.93
2023-04-03T15:30:04.210Z,5.60
2023-04-03T15:32:34.411Z,5.35
2023-04-03T15:35:03.966Z,5.97
2023-04-03T15:37:33.506Z,6.07
2023-04-03T15:40:02.946Z,6.30
2023-04-03T15:42:34.703Z,6.40
2023-04-03T15:45:05.145Z,5.97
2023-04-03T15:47:40.135Z,7.05
2023-04-03T15:50:13.434Z,6.75
2023-04-03T15:52:42.910Z,7.63
2023-04-03T15:55:12.454Z,7.80
2023-04-03T15:57:43.971Z,7.28
2023-04-03T16:00:15.529Z,6.47
2023-04-03T16:02:45.770Z,6.45
2023-04-03T16:05:16.088Z,7.78
2023-04-03T16:07:45.312Z,7.05
2023-04-03T16:10:25.953Z,6.82
2023-04-03T16:12:57.110Z,7.20
2023-04-03T16:15:37.881Z,7.13
2023-04-03T16:18:08.180Z,7.30
2023-04-03T16:20:44.428Z,7.10
2023-04-03T16:23:15.049Z,7.15
2023-04-03T16:25:52.781Z,7.05
2023-04-03T16:28:24.255Z,7.10
2023-04-03T16:30:54.331Z,8.02
2023-04-03T16:33:23.559Z,7.38
2023-04-03T16:35:54.033Z,6.43
2023-04-03T16:38:23.390Z,7.07
2023-04-03T16:40:53.083Z,6.47
2023-04-03T16:43:29.960Z,6.75
2023-04-03T16:48:28.353Z,6.35
2023-04-03T16:51:03.784Z,6.18
2023-04-03T16:53:32.968Z,6.90
2023-04-03T16:56:02.358Z,7.03
2023-04-03T16:58:33.631Z,8.85
2023-04-03T17:01:15.741Z,8.13
2023-04-03T17:04:09.650Z,9.43
2023-04-03T17:06:50.769Z,9.25
2023-04-03T17:09:25.623Z,9.43
2023-04-03T17:11:54.789Z,8.65
2023-04-03T17:14:26.382Z,6.88
2023-04-03T17:16:55.954Z,9.23
2023-04-03T17:19:25.947Z,9.07
2023-04-03T17:21:55.785Z,9.88
2023-04-03T17:24:25.240Z,9.38
2023-04-03T17:26:59.586Z,8.30
2023-04-03T17:32:06.339Z,7.28
2023-04-03T17:34:36.491Z,5.50
2023-04-03T17:37:06.001Z,6.97
2023-04-03T17:39:35.487Z,6.00
2023-04-03T17:42:04.705Z,6.93
2023-04-03T17:44:41.508Z,9.32
2023-04-03T17:47:13.403Z,8.07
2023-04-03T17:49:45.781Z,6.90
2023-04-03T17:52:15.059Z,8.43
2023-04-03T17:54:47.213Z,7.80
2023-04-03T17:57:16.590Z,7.50
2023-04-03T17:59:48.430Z,7.10
2023-04-03T18:04:53.967Z,6.88
2023-04-03T18:07:25.718Z,7.80
2023-04-03T18:09:55.128Z,7.30
2023-04-03T18:12:24.719Z,7.55
2023-04-03T18:14:56.367Z,8.70
2023-04-03T18:17:28.129Z,7.53
2023-04-03T18:19:57.534Z,7.47
2023-04-03T18:22:27.868Z,6.30
2023-04-03T18:24:59.423Z,7.32
2023-04-03T18:27:30.035Z,7.68
2023-04-03T18:30:04.805Z,7.82
2023-04-03T18:32:34.076Z,6.40
2023-04-03T18:35:03.540Z,8.05
2023-04-03T18:37:33.037Z,7.90
2023-04-03T18:40:02.219Z,8.65
2023-04-03T18:42:32.487Z,10.07
2023-04-03T18:45:07.956Z,9.85
2023-04-03T18:47:37.289Z,9.30
2023-04-03T18:50:07.841Z,10.70
2023-04-03T18:52:37.193Z,11.57
2023-04-03T18:55:13.591Z,9.98
2023-04-03T18:57:42.769Z,11.20
2023-04-03T19:00:17.759Z,11.70
2023-04-03T19:02:47.637Z,11.07
2023-04-03T19:05:23.457Z,11.43
2023-04-03T19:07:57.900Z,11.82
2023-04-03T19:10:30.832Z,11.48
2023-04-03T19:13:05.519Z,11.40
2023-04-03T19:15:37.104Z,12.57
2023-04-03T19:20:36.746Z,11.80
2023-04-03T19:23:06.120Z,12.63
2023-04-03T19:25:35.889Z,13.23
2023-04-03T19:28:10.561Z,12.05
2023-04-03T19:30:43.276Z,11.75
2023-04-03T19:33:21.449Z,12.52
2023-04-03T19:35:50.869Z,11.98
2023-04-03T19:38:20.107Z,11.90
2023-04-03T19:40:49.507Z,12.25
2023-04-03T19:43:19.351Z,11.50
2023-04-03T19:46:00.919Z,12.30
2023-04-03T19:48:35.196Z,10.77
2023-04-03T19:51:05.699Z,11.05
2023-04-03T19:53:34.907Z,11.65
2023-04-03T19:56:04.181Z,11.43
2023-04-03T19:58:34.134Z,11.60
2023-04-03T20:01:05.388Z,13.38
2023-04-03T20:03:34.978Z,11.05
2023-04-03T20:06:05.148Z,12.10
2023-04-03T20:08:39.761Z,11.98
2023-04-03T20:11:12.140Z,10.82
2023-04-03T20:13:41.821Z,12.32
2023-04-03T20:16:13.106Z,12.00
2023-04-03T20:18:48.858Z,12.70
2023-04-03T20:21:28.925Z,11.93
2023-04-03T20:23:59.057Z,11.73
2023-04-03T20:26:31.632Z,12.23
2023-04-03T20:29:03.629Z,10.90
2023-04-03T20:34:15.836Z,11.15
2023-04-03T20:36:48.047Z,11.23
2023-04-03T20:39:23.648Z,11.55
2023-04-03T20:41:55.193Z,10.85
2023-04-03T20:44:27.685Z,10.68
2023-04-03T20:47:04.017Z,9.95
2023-04-03T20:49:33.859Z,12.48
2023-04-03T20:52:04.183Z,11.77
2023-04-03T20:54:34.398Z,11.15
2023-04-03T20:57:04.249Z,12.45
2023-04-03T20:59:36.613Z,12.48
2023-04-03T21:02:08.747Z,13.45
2023-04-03T21:04:49.885Z,11.55
2023-04-03T21:07:49.295Z,12.45
2023-04-03T21:10:48.380Z,11.27
2023-04-03T21:13:48.390Z,9.73
2023-04-03T21:16:17.460Z,9.10
2023-04-03T21:19:20.109Z,9.75
2023-04-03T21:21:57.043Z,10.38
2023-04-03T21:24:26.323Z,11.38
2023-04-03T21:26:55.608Z,11.70
2023-04-03T21:29:25.870Z,11.63
2023-04-03T21:31:56.693Z,10.50
2023-04-03T21:34:29.729Z,10.73
2023-04-03T21:37:02.928Z,11.05
2023-04-03T21:39:33.720Z,12.65
2023-04-03T21:42:02.963Z,11.38
2023-04-03T21:44:37.180Z,11.75
2023-04-03T21:47:07.285Z,9.95
2023-04-03T21:49:38.713Z,11.55
2023-04-03T21:52:08.128Z,10.35
2023-04-03T21:54:42.231Z,10.88
2023-04-03T21:57:13.090Z,10.52
2023-04-03T21:59:42.830Z,10.27
2023-04-03T22:02:12.081Z,9.85
2023-04-03T22:04:45.488Z,9.95
2023-04-03T22:07:15.019Z,10.20
2023-04-03T22:09:44.939Z,10.50
2023-04-03T22:12:14.322Z,10.98
2023-04-03T22:14:44.227Z,10.77
2023-04-03T22:17:19.100Z,10.85
2023-04-03T22:19:50.387Z,10.98
2023-04-03T22:22:20.719Z,10.38
2023-04-03T22:24:50.014Z,10.75
2023-04-03T22:27:30.241Z,10.80
2023-04-03T22:30:00.155Z,10.93
2023-04-03T22:32:29.465Z,12.93
2023-04-03T22:35:06.234Z,12.27
2023-04-03T22:37:35.780Z,12.27
2023-04-03T22:40:05.258Z,12.52
2023-04-03T22:45:11.327Z,10.60
2023-04-03T22:47:40.560Z,11.85
2023-04-03T22:50:13.152Z,10.10
2023-04-03T22:52:42.392Z,11.15
2023-04-03T22:55:19.077Z,10.35
2023-04-03T22:57:48.918Z,9.20
2023-04-03T23:00:20.350Z,10.85
2023-04-03T23:02:49.579Z,9.10
2023-04-03T23:05:20.807Z,9.50
2023-04-03T23:10:24.939Z,9.18
2023-04-03T23:12:59.444Z,9.50
2023-04-03T23:15:28.786Z,9.15
2023-04-03T23:17:58.004Z,9.13
2023-04-03T23:20:29.723Z,9.80
2023-04-03T23:22:59.050Z,8.73
2023-04-03T23:25:28.729Z,7.57
2023-04-03T23:28:04.338Z,9.02
2023-04-03T23:30:33.934Z,9.60
2023-04-03T23:33:03.253Z,8.50
2023-04-03T23:35:35.007Z,8.65
2023-04-03T23:38:04.371Z,5.93
2023-04-03T23:40:33.754Z,7.43
2023-04-03T23:43:03.500Z,9.70
2023-04-03T23:45:32.690Z,8.20
2023-04-03T23:48:02.086Z,9.48
2023-04-03T23:50:33.701Z,9.50
2023-04-03T23:53:03.251Z,9.40
2023-04-03T23:55:43.440Z,8.20
2023-04-03T23:58:12.853Z,9.75
